Time;durP1;ratioP1;P1;durP2;ratioP2;P2;SDS_P1;SDS_P2;PMS_P1;PMS_P2;Temp;Humidity;BMP_temperature;BMP_pressure;BME280_temperature;BME280_humidity;BME280_pressure;Samples;Min_cycle;Max_cycle;Signal;HPM_P1;HPM_P2
2022/08/18 00:02:17;;;;;;;27.60;23.48;;;21.80;61.90;;;;;;5030768;28;20050;-50
2022/08/18 00:04:44;;;;;;;;;;;21.70;62.80;;;;;;5021910;28;20120;-50
2022/08/18 00:07:21;;;;;;;24.33;20.30;;;21.80;61.70;;;;;;5020999;28;19983;-49
2022/08/18 00:09:53;;;;;;;25.20;21.25;;;21.90;62.10;;;;;;5021607;28;20174;-50
2022/08/18 00:12:43;;;;;;;23.45;19.92;;;21.90;61.50;;;;;;5030317;28;20045;-51
2022/08/18 00:15:12;;;;;;;23.75;21.02;;;21.80;62.50;;;;;;5007552;28;20075;-51
2022/08/18 00:17:42;;;;;;;23.05;20.60;;;21.80;61.80;;;;;;5018828;28;20041;-48
2022/08/18 00:20:21;;;;;;;23.02;20.45;;;21.90;62.00;;;;;;5028830;28;20049;-48
2022/08/18 00:22:48;;;;;;;28.60;22.95;;;21.90;62.80;;;;;;5018361;28;20049;-47
2022/08/18 00:25:19;;;;;;;27.48;24.38;;;22.00;63.30;;;;;;5008601;28;20068;-50
2022/08/18 00:27:49;;;;;;;25.88;23.08;;;22.00;63.70;;;;;;5019255;28;20549;-48
2022/08/18 00:30:20;;;;;;;26.23;23.52;;;22.00;64.20;;;;;;5028433;28;20054;-49
2022/08/18 00:32:53;;;;;;;27.60;23.30;;;22.10;64.60;;;;;;5014582;28;20060;-52
2022/08/18 00:35:32;;;;;;;26.02;23.23;;;22.20;64.50;;;;;;5000069;28;20033;-50
2022/08/18 00:38:01;;;;;;;27.50;22.75;;;22.20;64.80;;;;;;5027708;28;20084;-48
2022/08/18 00:40:44;;;;;;;28.02;24.52;;;22.30;64.40;;;;;;5001260;28;20537;-49
2022/08/18 00:43:30;;;;;;;26.85;22.73;;;22.40;64.90;;;;;;5014413;28;20065;-47
2022/08/18 00:45:57;;;;;;;30.13;24.40;;;22.40;64.70;;;;;;5020667;28;20505;-50
2022/08/18 00:48:25;;;;;;;31.52;25.92;;;22.40;63.90;;;;;;5023229;28;20623;-49
2022/08/18 00:51:02;;;;;;;29.20;25.42;;;22.50;64.00;;;;;;5017570;28;20045;-49
2022/08/18 00:53:46;;;;;;;34.03;26.55;;;22.60;64.50;;;;;;5016578;28;20437;-49
2022/08/18 00:56:27;;;;;;;31.63;26.00;;;22.50;64.80;;;;;;5029311;28;20458;-48
2022/08/18 00:59:05;;;;;;;33.60;26.90;;;22.60;64.80;;;;;;4991758;28;20046;-46
2022/08/18 01:01:35;;;;;;;34.13;26.20;;;22.70;64.90;;;;;;5013942;28;20045;-48
2022/08/18 01:04:11;;;;;;;30.08;25.55;;;22.60;64.30;;;;;;5002971;28;20070;-48
2022/08/18 01:06:54;;;;;;;38.85;28.20;;;22.70;65.20;;;;;;5015129;28;20565;-46
2022/08/18 01:09:29;;;;;;;34.03;26.10;;;22.70;65.50;;;;;;5008459;28;20066;-52
2022/08/18 01:12:03;;;;;;;34.65;26.70;;;22.70;64.40;;;;;;5004789;28;20073;-47
2022/08/18 01:14:58;;;;;;;41.28;28.20;;;22.70;64.70;;;;;;5005363;28;20045;-49
2022/08/18 01:23:15;;;;;;;33.28;26.77;;;22.70;65.20;;;;;;5021284;28;20064;-46
2022/08/18 01:25:58;;;;;;;39.25;27.52;;;22.80;65.50;;;;;;5023433;28;20796;-47
2022/08/18 01:28:33;;;;;;;46.53;25.40;;;22.80;65.10;;;;;;5025070;28;20034;-51
2022/08/18 01:31:00;;;;;;;;;;;22.80;65.50;;;;;;5014075;28;20046;-51
2022/08/18 01:33:35;;;;;;;37.75;23.95;;;22.90;64.70;;;;;;5021919;28;19948;-49
2022/08/18 01:36:18;;;;;;;31.15;25.42;;;22.80;64.80;;;;;;5032014;28;20095;-49
2022/08/18 01:38:50;;;;;;;34.75;25.88;;;22.80;65.70;;;;;;5016695;28;20070;-50
2022/08/18 01:41:21;;;;;;;33.47;26.55;;;22.70;65.20;;;;;;5019459;28;20041;-47
2022/08/18 01:44:01;;;;;;;40.85;25.60;;;22.70;66.00;;;;;;5025843;28;20417;-50
2022/08/18 01:46:30;;;;;;;35.20;25.95;;;22.60;65.80;;;;;;5032237;28;20049;-49
2022/08/18 01:49:02;;;;;;;34.90;25.17;;;22.60;65.70;;;;;;5015986;28;20535;-51
2022/08/18 01:51:33;;;;;;;34.28;26.50;;;22.60;65.70;;;;;;5024695;28;20071;-47
2022/08/18 01:54:12;;;;;;;34.78;25.42;;;22.60;65.70;;;;;;5031470;28;20042;-49
2022/08/18 01:56:43;;;;;;;34.22;25.13;;;22.60;66.10;;;;;;5032609;28;20049;-50
2022/08/18 01:59:14;;;;;;;31.67;24.02;;;22.60;66.20;;;;;;5000252;28;20128;-46
2022/08/18 02:01:46;;;;;;;35.13;25.73;;;22.60;66.20;;;;;;5021017;28;20042;-49
2022/08/18 02:04:22;;;;;;;32.55;24.42;;;22.60;66.40;;;;;;5015618;28;20565;-49
2022/08/18 02:07:03;;;;;;;34.67;27.33;;;22.60;66.10;;;;;;5027875;28;20092;-49
2022/08/18 02:09:30;;;;;;;37.35;26.45;;;22.60;66.20;;;;;;5021614;28;20056;-49
2022/08/18 02:11:59;;;;;;;36.20;27.45;;;22.60;66.30;;;;;;5024357;28;20113;-48
2022/08/18 02:14:28;;;;;;;38.75;29.08;;;22.60;66.30;;;;;;5032647;28;20460;-48
2022/08/18 02:16:58;;;;;;;36.45;26.55;;;22.60;66.40;;;;;;5017462;28;20051;-47
2022/08/18 02:19:37;;;;;;;41.88;29.73;;;22.70;66.50;;;;;;5026467;28;20038;-49
2022/08/18 02:22:09;;;;;;;46.92;30.63;;;22.70;66.80;;;;;;5030156;28;20136;-46
2022/08/18 02:24:37;;;;;;;48.55;30.90;;;22.70;67.00;;;;;;5031829;28;20095;-49
2022/08/18 02:27:05;;;;;;;55.25;32.42;;;22.70;66.30;;;;;;5032604;28;20045;-49
2022/08/18 02:29:34;;;;;;;56.38;33.65;;;22.70;66.30;;;;;;5032188;28;20083;-49
2022/08/18 02:32:01;;;;;;;55.85;33.30;;;22.70;66.20;;;;;;5032248;28;20045;-47
2022/08/18 02:34:31;;;;;;;55.47;33.17;;;22.70;66.20;;;;;;5012113;28;20038;-46
2022/08/18 02:37:03;;;;;;;49.95;32.58;;;22.70;66.30;;;;;;5018330;28;20042;-46
2022/08/18 02:39:36;;;;;;;54.78;35.67;;;22.70;66.30;;;;;;5018746;28;20062;-49
2022/08/18 02:42:06;;;;;;;51.50;34.05;;;22.70;66.50;;;;;;5012034;28;20534;-50
2022/08/18 02:44:35;;;;;;;56.42;34.63;;;22.70;66.50;;;;;;5013037;28;20045;-50
2022/08/18 02:47:02;;;;;;;51.88;33.10;;;22.70;66.40;;;;;;5018136;28;20037;-50
2022/08/18 02:49:29;;;;;;;46.90;32.65;;;22.70;66.30;;;;;;5031874;28;20045;-51
2022/08/18 02:51:56;;;;;;;46.97;32.92;;;22.70;66.30;;;;;;5030456;28;20045;-50
2022/08/18 02:54:26;;;;;;;44.15;28.25;;;22.70;66.20;;;;;;5002428;28;20072;-46
2022/08/18 02:56:56;;;;;;;41.22;28.55;;;22.80;66.20;;;;;;5022507;28;20110;-50
2022/08/18 02:59:26;;;;;;;41.63;29.30;;;22.80;66.00;;;;;;5024260;28;20522;-50
2022/08/18 03:01:55;;;;;;;43.53;31.65;;;22.80;66.40;;;;;;5016463;28;20046;-48
2022/08/18 03:04:29;;;;;;;43.30;28.80;;;22.70;66.30;;;;;;5009619;28;20044;-48
2022/08/18 03:07:03;;;;;;;44.40;29.27;;;22.70;66.30;;;;;;5005939;28;20456;-46
2022/08/18 03:09:31;;;;;;;42.08;29.95;;;22.70;66.40;;;;;;5030479;28;20041;-49
2022/08/18 03:11:58;;;;;;;41.90;28.35;;;22.70;66.90;;;;;;5016589;28;20041;-50
2022/08/18 03:14:26;;;;;;;36.80;28.65;;;22.70;66.30;;;;;;5016824;28;20042;-49
2022/08/18 03:16:53;;;;;;;41.55;28.20;;;22.60;66.50;;;;;;5019631;28;20467;-46
2022/08/18 03:19:30;;;;;;;41.45;29.52;;;22.70;66.60;;;;;;4992752;28;20101;-47
2022/08/18 03:22:00;;;;;;;40.90;28.67;;;22.60;67.30;;;;;;5005534;28;20398;-46
2022/08/18 03:24:30;;;;;;;39.88;28.20;;;22.60;66.60;;;;;;5017855;28;20066;-51
2022/08/18 03:27:05;;;;;;;42.70;29.08;;;22.60;66.70;;;;;;5023087;28;20445;-47
2022/08/18 03:29:35;;;;;;;40.90;27.45;;;22.60;66.80;;;;;;5031794;28;20545;-49
2022/08/18 03:32:07;;;;;;;40.13;27.58;;;22.60;67.00;;;;;;5013346;28;20070;-52
2022/08/18 03:34:42;;;;;;;36.10;27.70;;;22.50;66.90;;;;;;5022823;28;20065;-46
2022/08/18 03:37:09;;;;;;;42.25;30.08;;;22.50;67.00;;;;;;5030034;28;20650;-46
2022/08/18 03:39:36;;;;;;;39.90;29.05;;;22.60;66.90;;;;;;5015806;28;20041;-47
2022/08/18 03:42:03;;;;;;;45.40;30.45;;;22.60;67.00;;;;;;5017127;28;20045;-50
2022/08/18 03:44:37;;;;;;;48.63;31.23;;;22.50;67.00;;;;;;5023077;28;20129;-51
2022/08/18 03:47:16;;;;;;;48.75;30.95;;;22.50;67.10;;;;;;5031283;28;20513;-47
2022/08/18 03:49:44;;;;;;;43.58;30.73;;;22.50;67.00;;;;;;5008679;28;20054;-47
2022/08/18 03:52:12;;;;;;;47.17;32.20;;;22.60;67.00;;;;;;5018427;28;20054;-46
2022/08/18 03:54:39;;;;;;;45.65;31.00;;;22.40;67.10;;;;;;5023153;28;20457;-49
2022/08/18 03:57:10;;;;;;;45.47;31.60;;;22.50;67.20;;;;;;5030942;28;20449;-47
2022/08/18 03:59:42;;;;;;;46.25;32.08;;;22.40;67.70;;;;;;5015795;28;20096;-48
2022/08/18 04:02:10;;;;;;;44.40;30.98;;;22.40;67.60;;;;;;5021946;28;20037;-50
2022/08/18 04:04:39;;;;;;;48.90;32.40;;;22.40;67.60;;;;;;5025006;28;20143;-48
2022/08/18 04:07:10;;;;;;;;;;;22.40;67.70;;;;;;5019195;28;20045;-50
2022/08/18 04:09:37;;;;;;;47.05;33.15;;;22.40;67.40;;;;;;5011547;28;19925;-51
2022/08/18 04:12:11;;;;;;;51.22;32.88;;;22.40;67.20;;;;;;5021288;28;20494;-49
2022/08/18 04:14:46;;;;;;;50.30;32.28;;;22.40;67.70;;;;;;5026318;28;20038;-50
2022/08/18 04:17:23;;;;;;;51.55;33.58;;;22.40;67.80;;;;;;5030611;28;20045;-47
2022/08/18 04:19:52;;;;;;;46.50;33.05;;;22.40;68.20;;;;;;5011561;28;20049;-50
2022/08/18 04:22:19;;;;;;;46.45;32.78;;;22.40;67.90;;;;;;5018953;28;20071;-50
2022/08/18 04:24:46;;;;;;;46.65;31.52;;;22.40;67.90;;;;;;5011185;28;20045;-47
2022/08/18 04:27:19;;;;;;;43.47;30.17;;;22.40;67.90;;;;;;5003375;28;20052;-50
2022/08/18 04:29:46;;;;;;;39.95;27.65;;;22.50;68.00;;;;;;5010246;28;20092;-49
2022/08/18 04:32:14;;;;;;;44.22;30.23;;;22.50;68.10;;;;;;5020753;28;20099;-51
2022/08/18 04:34:40;;;;;;;48.50;31.85;;;22.50;67.90;;;;;;5010700;28;20052;-50
2022/08/18 04:37:08;;;;;;;44.78;29.45;;;22.50;67.90;;;;;;5004286;28;20462;-48
2022/08/18 04:39:36;;;;;;;45.35;30.15;;;22.50;67.90;;;;;;5016340;28;20055;-48
2022/08/18 04:42:03;;;;;;;45.20;31.83;;;22.50;67.70;;;;;;5021684;28;20446;-48
2022/08/18 04:44:36;;;;;;;45.28;30.25;;;22.50;67.60;;;;;;5021978;28;20053;-48
2022/08/18 04:47:04;;;;;;;50.33;31.73;;;22.60;67.50;;;;;;5006297;28;20569;-52
2022/08/18 04:49:32;;;;;;;51.20;33.28;;;22.50;67.30;;;;;;5022319;28;20039;-52
2022/08/18 04:55:05;;;;;;;52.05;33.55;;;22.50;67.20;;;;;;5029319;28;20778;-50
2022/08/18 04:57:32;;;;;;;50.67;30.90;;;22.50;67.10;;;;;;5010691;28;20497;-48
2022/08/18 05:00:01;;;;;;;46.95;32.28;;;22.40;67.10;;;;;;5008913;28;20047;-49
2022/08/18 05:02:28;;;;;;;47.33;32.22;;;22.40;67.20;;;;;;5023403;28;20046;-50
2022/08/18 05:04:55;;;;;;;51.15;34.58;;;22.40;67.30;;;;;;5017885;28;20046;-53
2022/08/18 05:07:22;;;;;;;51.95;33.42;;;22.30;67.50;;;;;;5021099;28;20506;-52
2022/08/18 05:09:50;;;;;;;47.25;31.70;;;22.30;67.60;;;;;;5023498;28;20482;-50
2022/08/18 05:12:17;;;;;;;47.22;31.13;;;22.20;67.70;;;;;;5036003;28;20051;-51
2022/08/18 05:14:46;;;;;;;51.75;33.47;;;22.20;67.80;;;;;;5023818;28;20042;-50
2022/08/18 05:17:14;;;;;;;47.30;34.05;;;22.20;68.10;;;;;;5019443;28;20048;-51
2022/08/18 05:19:43;;;;;;;44.22;30.38;;;22.20;68.50;;;;;;5027916;28;20641;-50
2022/08/18 05:22:16;;;;;;;46.15;31.92;;;22.20;68.70;;;;;;5027703;28;20030;-51
2022/08/18 05:24:44;;;;;;;47.45;31.85;;;22.20;68.80;;;;;;5010288;28;20522;-51
2022/08/18 05:27:12;;;;;;;43.60;29.52;;;22.20;69.00;;;;;;5026977;28;20049;-50
2022/08/18 05:29:39;;;;;;;45.22;31.23;;;22.20;69.00;;;;;;5029527;28;20051;-49
2022/08/18 05:32:13;;;;;;;48.05;31.40;;;22.20;69.00;;;;;;5014064;28;20550;-49
2022/08/18 05:35:08;;;;;;;41.33;28.80;;;22.30;69.10;;;;;;5017940;28;20129;-52
2022/08/18 05:37:46;;;;;;;41.22;30.70;;;22.30;69.30;;;;;;5019223;28;20046;-51
2022/08/18 05:40:13;;;;;;;41.33;27.85;;;22.30;69.20;;;;;;5020788;28;20054;-50
2022/08/18 05:42:41;;;;;;;39.35;28.38;;;22.40;69.00;;;;;;5018753;28;20107;-50
2022/08/18 05:45:11;;;;;;;39.63;28.63;;;22.40;69.00;;;;;;5025478;28;20042;-51
2022/08/18 05:47:38;;;;;;;41.35;28.98;;;22.40;69.10;;;;;;5028269;28;20510;-52
2022/08/18 05:50:09;;;;;;;40.33;29.20;;;22.50;69.00;;;;;;5035769;28;20515;-51
2022/08/18 05:52:50;;;;;;;37.55;28.40;;;22.50;69.20;;;;;;5022219;28;20065;-47
2022/08/18 05:58:39;;;;;;;40.67;28.25;;;22.60;69.20;;;;;;5025647;28;20037;-49
2022/08/18 06:01:14;;;;;;;40.30;28.05;;;22.60;69.30;;;;;;5020728;28;20088;-51
2022/08/18 06:03:50;;;;;;;41.88;27.80;;;22.60;69.00;;;;;;5020805;28;20440;-50
2022/08/18 06:06:25;;;;;;;41.20;29.17;;;22.60;68.90;;;;;;5028329;28;20041;-49
2022/08/18 06:09:15;;;;;;;42.35;29.02;;;22.70;68.90;;;;;;5031509;28;20046;-52
2022/08/18 06:11:43;;;;;;;39.85;27.90;;;22.70;69.30;;;;;;5026201;28;20053;-48
2022/08/18 06:14:13;;;;;;;41.20;30.20;;;22.60;68.80;;;;;;5027671;28;20401;-52
2022/08/18 06:16:48;;;;;;;42.35;29.65;;;22.70;68.80;;;;;;5035777;28;20406;-50
2022/08/18 06:19:32;;;;;;;36.42;26.83;;;22.70;69.10;;;;;;5019298;28;20178;-51
2022/08/18 06:22:35;;;;;;;39.58;27.08;;;22.70;69.20;;;;;;5019301;28;20045;-52
2022/08/18 06:25:19;;;;;;;38.55;27.67;;;22.70;69.20;;;;;;5014569;28;20623;-49
2022/08/18 06:28:15;;;;;;;36.40;26.15;;;22.80;69.10;;;;;;5019605;28;20404;-48
2022/08/18 06:30:56;;;;;;;37.50;28.42;;;22.80;69.10;;;;;;5007395;28;20049;-51
2022/08/18 06:34:09;;;;;;;31.48;25.88;;;22.80;68.90;;;;;;5013777;28;20454;-47
2022/08/18 06:36:46;;;;;;;28.90;22.20;;;22.80;69.00;;;;;;5003775;28;20045;-47
2022/08/18 06:39:45;;;;;;;27.25;21.25;;;22.90;68.60;;;;;;5014541;28;20537;-49
2022/08/18 06:42:29;;;;;;;24.10;20.35;;;22.90;68.40;;;;;;4990961;28;20073;-52
2022/08/18 06:45:04;;;;;;;26.23;21.92;;;22.90;68.20;;;;;;5015356;28;20050;-51
2022/08/18 06:47:39;;;;;;;25.25;20.60;;;22.90;68.30;;;;;;4992385;28;20054;-52
2022/08/18 06:50:16;;;;;;;28.77;22.85;;;22.90;68.30;;;;;;5004887;28;20037;-48
2022/08/18 06:52:54;;;;;;;26.13;21.90;;;22.90;68.30;;;;;;5024493;28;20100;-49
2022/08/18 06:55:54;;;;;;;25.98;22.48;;;22.90;68.50;;;;;;5009072;28;20046;-50
2022/08/18 06:58:29;;;;;;;27.42;22.58;;;23.00;68.60;;;;;;4990814;28;20053;-48
2022/08/18 07:00:59;;;;;;;27.48;22.67;;;23.00;68.60;;;;;;5023343;28;20037;-49
2022/08/18 07:03:35;;;;;;;24.77;21.10;;;23.00;68.40;;;;;;5002975;28;20096;-50
2022/08/18 07:06:07;;;;;;;24.63;21.58;;;23.00;68.50;;;;;;5007051;28;20069;-51
2022/08/18 07:08:36;;;;;;;24.65;19.83;;;23.00;68.30;;;;;;5013370;28;20084;-48
2022/08/18 07:11:33;;;;;;;23.10;19.13;;;23.00;67.90;;;;;;5015530;28;20042;-49
2022/08/18 07:14:19;;;;;;;23.90;18.30;;;23.10;68.00;;;;;;4985087;28;20066;-50
2022/08/18 07:16:47;;;;;;;21.50;17.95;;;23.10;67.80;;;;;;5005504;28;20100;-50
2022/08/18 07:19:28;;;;;;;19.58;17.42;;;23.10;67.60;;;;;;5013928;28;20044;-52
2022/08/18 07:22:08;;;;;;;20.75;16.13;;;23.10;67.60;;;;;;5020596;28;20854;-51
2022/08/18 07:24:50;;;;;;;15.02;13.15;;;23.20;67.60;;;;;;5008985;28;20132;-51
2022/08/18 07:27:20;;;;;;;14.57;12.70;;;23.20;67.20;;;;;;5021913;28;20041;-48
2022/08/18 07:30:04;;;;;;;14.75;12.88;;;23.30;67.40;;;;;;5023100;28;20465;-51
2022/08/18 07:32:38;;;;;;;14.13;12.63;;;23.30;67.20;;;;;;5009436;28;20042;-48
2022/08/18 07:35:08;;;;;;;13.23;11.82;;;23.30;67.10;;;;;;5003966;28;20100;-48
2022/08/18 07:37:42;;;;;;;14.15;12.68;;;23.30;66.50;;;;;;5009082;28;20732;-51
2022/08/18 07:40:35;;;;;;;13.93;12.55;;;23.40;66.50;;;;;;5018173;28;20049;-48
2022/08/18 07:43:13;;;;;;;12.80;11.38;;;23.50;66.30;;;;;;5011434;28;20695;-50
2022/08/18 07:45:43;;;;;;;14.73;12.60;;;23.60;66.50;;;;;;5009100;28;20962;-49
2022/08/18 07:48:18;;;;;;;13.38;11.82;;;23.60;66.50;;;;;;5012650;28;20042;-49
2022/08/18 07:51:22;;;;;;;14.73;12.63;;;23.70;66.40;;;;;;5009332;28;20042;-55
2022/08/18 07:53:59;;;;;;;14.48;12.82;;;23.80;65.70;;;;;;5010687;28;20042;-49
2022/08/18 07:56:54;;;;;;;14.35;11.93;;;23.90;65.50;;;;;;5015403;28;20068;-51
2022/08/18 07:59:44;;;;;;;13.95;11.45;;;24.00;65.20;;;;;;5005325;28;20088;-50
2022/08/18 08:02:27;;;;;;;14.05;12.15;;;24.20;64.90;;;;;;5006088;28;20415;-51
2022/08/18 08:05:26;;;;;;;13.35;12.02;;;24.30;64.40;;;;;;4998845;28;20053;-47
2022/08/18 08:07:58;;;;;;;11.95;10.75;;;24.40;64.00;;;;;;4998085;28;20050;-52
2022/08/18 08:10:50;;;;;;;11.52;9.48;;;24.50;63.10;;;;;;5010036;28;20037;-51
2022/08/18 08:13:27;;;;;;;8.50;7.60;;;24.60;62.40;;;;;;5008387;28;20068;-51
2022/08/18 08:16:46;;;;;;;10.23;7.50;;;24.70;62.00;;;;;;5008833;28;20112;-51
2022/08/18 08:19:43;;;;;;;8.25;7.45;;;24.70;61.40;;;;;;5010988;28;20054;-51
2022/08/18 08:22:38;;;;;;;7.75;6.75;;;24.80;61.00;;;;;;5014268;28;20065;-52
2022/08/18 08:25:23;;;;;;;8.18;7.38;;;24.80;60.40;;;;;;4991614;28;20445;-49
2022/08/18 08:28:17;;;;;;;7.97;7.28;;;24.90;60.60;;;;;;5004398;28;20041;-52
2022/08/18 08:31:09;;;;;;;7.10;6.00;;;24.90;59.70;;;;;;5002961;28;20506;-52
2022/08/18 08:34:13;;;;;;;7.47;6.78;;;24.90;59.90;;;;;;5021139;28;20155;-50
2022/08/18 08:36:44;;;;;;;8.65;6.85;;;24.90;59.60;;;;;;5023239;28;20049;-49
2022/08/18 08:39:23;;;;;;;7.60;6.93;;;24.90;59.70;;;;;;5021631;28;20117;-52
2022/08/18 08:41:59;;;;;;;8.52;7.60;;;24.90;59.50;;;;;;5007301;28;20050;-49
2022/08/18 08:44:59;;;;;;;7.18;6.47;;;24.90;59.20;;;;;;5005353;28;20073;-52
2022/08/18 08:47:56;;;;;;;8.75;7.95;;;24.90;59.50;;;;;;5003348;28;20123;-52
2022/08/18 08:50:49;;;;;;;6.93;6.22;;;24.90;59.10;;;;;;5003558;28;20573;-50
2022/08/18 08:53:21;;;;;;;7.47;6.88;;;24.90;58.60;;;;;;5016703;28;20033;-49
2022/08/18 08:56:13;;;;;;;7.07;6.35;;;24.90;59.10;;;;;;5012902;28;20041;-52
2022/08/18 08:58:55;;;;;;;8.40;7.57;;;24.90;58.70;;;;;;5008089;28;20042;-50
2022/08/18 09:01:33;;;;;;;7.43;6.82;;;25.00;58.80;;;;;;5012254;28;20033;-47
2022/08/18 09:04:22;;;;;;;8.05;7.35;;;25.10;58.70;;;;;;5021395;28;20048;-50
2022/08/18 09:06:54;;;;;;;8.45;7.45;;;25.20;58.60;;;;;;5015950;28;20034;-51
2022/08/18 09:09:57;;;;;;;7.50;6.75;;;25.20;59.00;;;;;;5006864;28;20096;-48
2022/08/18 09:12:52;;;;;;;7.50;6.80;;;25.40;58.40;;;;;;5016471;28;20046;-52
2022/08/18 09:15:28;;;;;;;8.07;7.28;;;25.50;58.10;;;;;;4979822;28;20060;-50
2022/08/18 09:18:12;;;;;;;8.00;7.30;;;25.60;57.90;;;;;;5007302;28;20045;-52
2022/08/18 09:20:55;;;;;;;7.43;6.72;;;25.70;57.90;;;;;;5018324;28;20042;-48
2022/08/18 09:23:31;;;;;;;8.23;7.43;;;25.80;56.80;;;;;;5000665;28;20077;-48
2022/08/18 09:26:32;;;;;;;8.02;7.20;;;25.90;57.20;;;;;;5007190;28;20466;-49
2022/08/18 09:29:34;;;;;;;6.97;6.35;;;26.00;56.90;;;;;;5013995;28;20095;-51
2022/08/18 09:32:19;;;;;;;7.45;6.85;;;26.10;56.50;;;;;;5018353;28;20060;-48
2022/08/18 09:35:25;;;;;;;6.93;6.32;;;26.10;55.90;;;;;;5022944;28;20048;-53
2022/08/18 09:44:10;;;;;;;7.00;6.43;;;26.30;55.50;;;;;;5025549;28;20061;-48
2022/08/18 09:46:58;;;;;;;7.28;6.68;;;26.40;55.40;;;;;;5008125;28;20554;-48
2022/08/18 09:49:25;;;;;;;11.07;6.85;;;26.40;55.90;;;;;;5023273;28;20042;-51
2022/08/18 09:52:40;;;;;;;7.60;6.90;;;26.40;55.40;;;;;;5025438;28;20042;-50
2022/08/18 09:55:30;;;;;;;8.18;7.38;;;26.50;55.10;;;;;;4996831;28;20061;-56
2022/08/18 09:58:20;;;;;;;8.13;7.40;;;26.60;55.40;;;;;;5014477;28;20115;-49
2022/08/18 10:01:19;;;;;;;8.27;7.50;;;26.70;55.10;;;;;;5029868;28;20051;-47
2022/08/18 10:04:14;;;;;;;8.05;7.35;;;26.70;54.70;;;;;;5020617;28;20104;-50
2022/08/18 10:06:46;;;;;;;7.13;6.47;;;26.90;54.80;;;;;;5016978;28;20057;-49
2022/08/18 10:09:19;;;;;;;7.45;6.78;;;26.90;54.90;;;;;;5024143;28;20071;-51
2022/08/18 10:12:24;;;;;;;7.50;6.80;;;26.90;54.40;;;;;;5032381;28;20556;-50
2022/08/18 10:15:01;;;;;;;9.38;6.90;;;27.10;54.00;;;;;;5012748;28;20042;-50
2022/08/18 10:17:31;;;;;;;22.92;8.13;;;27.10;54.10;;;;;;5014236;28;20045;-51
2022/08/18 10:20:25;;;;;;;7.93;7.15;;;27.20;53.60;;;;;;5013406;28;20549;-50
2022/08/18 10:22:53;;;;;;;7.20;6.57;;;27.20;53.40;;;;;;5008604;28;20081;-48
2022/08/18 10:25:40;;;;;;;7.85;6.85;;;27.20;53.20;;;;;;5010812;28;20049;-47
2022/08/18 10:28:10;;;;;;;7.82;7.03;;;27.20;52.60;;;;;;5023691;28;20112;-48
2022/08/18 10:30:37;;;;;;;6.43;5.68;;;27.20;53.00;;;;;;5032056;28;20129;-50
2022/08/18 10:33:59;;;;;;;8.18;7.38;;;27.20;53.20;;;;;;5022156;28;20055;-48
2022/08/18 10:36:53;;;;;;;6.57;5.97;;;27.20;53.00;;;;;;5018364;28;20041;-50
2022/08/18 10:39:51;;;;;;;7.47;6.65;;;27.10;52.80;;;;;;4999844;28;20049;-52
2022/08/18 10:42:25;;;;;;;7.07;6.47;;;27.20;53.10;;;;;;4993842;28;20073;-50
2022/08/18 10:45:06;;;;;;;7.15;6.40;;;27.20;52.70;;;;;;5017304;28;20125;-54
2022/08/18 10:47:35;;;;;;;7.10;6.40;;;27.20;52.40;;;;;;5021580;28;20484;-51
2022/08/18 10:50:18;;;;;;;6.93;6.22;;;27.30;53.10;;;;;;5031484;28;20527;-53
2022/08/18 10:52:57;;;;;;;6.57;5.97;;;27.30;52.80;;;;;;5013361;28;20662;-47
2022/08/18 10:56:07;;;;;;;7.82;7.13;;;27.40;53.10;;;;;;5022371;28;20049;-48
2022/08/18 10:58:45;;;;;;;7.25;6.60;;;27.50;52.50;;;;;;5020760;28;20038;-51
2022/08/18 11:01:45;;;;;;;7.40;6.70;;;27.60;52.50;;;;;;5026150;28;20046;-50
2022/08/18 11:04:34;;;;;;;5.57;5.10;;;27.70;52.90;;;;;;5025670;28;20136;-50
2022/08/18 11:07:21;;;;;;;7.05;6.40;;;27.70;52.20;;;;;;5030104;28;20045;-53
2022/08/18 11:09:51;;;;;;;7.07;6.55;;;27.80;51.80;;;;;;5021805;28;20049;-49
2022/08/18 11:12:58;;;;;;;7.50;6.47;;;27.70;51.50;;;;;;5009108;28;20069;-50
2022/08/18 11:16:06;;;;;;;7.63;6.97;;;27.70;51.30;;;;;;5011949;28;20113;-50
2022/08/18 11:18:57;;;;;;;7.38;6.70;;;27.60;51.30;;;;;;5007905;28;20170;-48
2022/08/18 11:21:35;;;;;;;7.68;6.85;;;27.60;51.50;;;;;;5015629;28;20128;-49
2022/08/18 11:24:19;;;;;;;7.55;6.70;;;27.50;51.30;;;;;;5017977;28;20528;-49
2022/08/18 11:26:51;;;;;;;6.45;5.95;;;27.50;51.40;;;;;;5010376;28;20516;-49
2022/08/18 11:29:30;;;;;;;7.20;6.30;;;27.40;51.60;;;;;;5009502;28;20056;-52
2022/08/18 11:32:01;;;;;;;8.23;7.15;;;27.40;52.00;;;;;;5011638;28;20049;-51
2022/08/18 11:34:37;;;;;;;7.97;7.20;;;27.40;52.00;;;;;;5018653;28;20104;-48
2022/08/18 11:37:18;;;;;;;8.82;7.82;;;27.50;52.00;;;;;;5008296;28;20042;-51
2022/08/18 11:39:50;;;;;;;9.77;7.63;;;27.50;51.70;;;;;;5006398;28;20049;-52
2022/08/18 11:42:24;;;;;;;6.90;6.00;;;27.60;51.60;;;;;;5022399;28;20046;-50
2022/08/18 11:45:00;;;;;;;8.40;6.40;;;27.70;51.70;;;;;;5022572;28;20104;-49
2022/08/18 11:47:29;;;;;;;8.18;7.38;;;27.80;51.50;;;;;;5007825;28;20095;-49
2022/08/18 11:50:11;;;;;;;8.50;7.55;;;27.90;51.40;;;;;;5019901;28;20388;-48
2022/08/18 11:52:51;;;;;;;8.18;7.47;;;28.00;50.80;;;;;;5013944;28;20042;-48
2022/08/18 11:55:38;;;;;;;7.78;6.72;;;28.00;50.60;;;;;;5013997;28;20073;-52
2022/08/18 11:58:40;;;;;;;6.97;6.28;;;28.10;51.20;;;;;;5018475;28;20050;-54
2022/08/18 12:01:08;;;;;;;6.90;6.30;;;28.30;51.30;;;;;;5021730;28;20041;-49
2022/08/18 12:03:40;;;;;;;7.75;6.47;;;28.40;51.60;;;;;;5025265;28;20041;-52
2022/08/18 12:06:21;;;;;;;7.10;6.50;;;28.50;51.10;;;;;;5010372;28;20045;-48
2022/08/18 12:09:17;;;;;;;8.13;6.88;;;28.70;50.70;;;;;;4996686;28;20158;-52
2022/08/18 12:12:14;;;;;;;7.30;6.65;;;28.90;50.10;;;;;;5000864;28;20046;-52
2022/08/18 12:15:12;;;;;;;8.13;7.10;;;29.10;49.90;;;;;;4990452;28;20049;-49
2022/08/18 12:17:50;;;;;;;6.72;6.15;;;29.30;49.60;;;;;;4981754;28;20062;-52
2022/08/18 12:20:21;;;;;;;7.50;6.85;;;29.40;49.00;;;;;;5011239;28;20085;-53
2022/08/18 12:22:49;;;;;;;6.57;5.95;;;29.40;48.80;;;;;;5001314;28;20781;-50
2022/08/18 12:25:19;;;;;;;7.85;6.55;;;29.50;49.30;;;;;;5009082;28;20057;-50
2022/08/18 12:27:52;;;;;;;7.30;6.68;;;29.60;48.30;;;;;;5012729;28;20554;-52
2022/08/18 12:30:19;;;;;;;5.93;5.30;;;29.60;47.90;;;;;;5019504;28;20507;-48
2022/08/18 12:32:46;;;;;;;7.80;6.45;;;29.60;47.80;;;;;;5011115;28;20104;-49
2022/08/18 12:35:17;;;;;;;5.80;5.35;;;29.60;47.80;;;;;;5008061;28;20087;-51
2022/08/18 12:37:48;;;;;;;6.10;5.60;;;29.70;47.40;;;;;;5018921;28;20037;-50
2022/08/18 12:40:35;;;;;;;6.18;5.68;;;29.70;47.40;;;;;;5019065;28;20291;-52
2022/08/18 12:43:02;;;;;;;5.60;5.10;;;29.70;47.80;;;;;;5011961;28;20046;-52
2022/08/18 12:45:31;;;;;;;6.63;5.95;;;29.70;47.30;;;;;;4999808;28;20042;-52
2022/08/18 12:48:01;;;;;;;6.95;6.40;;;29.80;47.00;;;;;;5021894;28;20056;-48
2022/08/18 12:50:30;;;;;;;7.90;6.63;;;29.80;46.90;;;;;;4993294;28;20433;-48
2022/08/18 12:53:03;;;;;;;6.45;5.85;;;29.80;46.80;;;;;;5006532;28;20038;-50
2022/08/18 12:55:34;;;;;;;5.75;5.30;;;29.90;47.10;;;;;;5009479;28;20076;-49
2022/08/18 12:58:09;;;;;;;8.30;6.07;;;30.00;46.80;;;;;;5009813;28;20034;-51
2022/08/18 13:00:36;;;;;;;6.15;5.55;;;30.00;46.70;;;;;;4993072;28;20038;-50
2022/08/18 13:03:03;;;;;;;6.13;5.53;;;30.10;46.60;;;;;;5009642;28;20077;-50
2022/08/18 13:05:29;;;;;;;6.03;5.53;;;30.20;46.60;;;;;;4994708;28;20045;-54
2022/08/18 13:08:03;;;;;;;5.60;5.10;;;30.30;46.20;;;;;;5002420;28;20072;-53
2022/08/18 13:10:34;;;;;;;4.78;4.45;;;30.30;45.90;;;;;;5010777;28;20049;-49
2022/08/18 13:13:17;;;;;;;5.78;5.38;;;30.40;46.10;;;;;;5009157;28;20057;-50
2022/08/18 13:15:46;;;;;;;4.90;4.50;;;30.40;46.00;;;;;;5009190;28;20080;-54
2022/08/18 13:18:23;;;;;;;5.78;5.20;;;30.50;45.90;;;;;;5003141;28;20046;-53
2022/08/18 13:20:59;;;;;;;4.82;4.28;;;30.60;45.80;;;;;;5002059;28;20104;-49
2022/08/18 13:23:27;;;;;;;4.70;4.30;;;30.70;45.90;;;;;;4985232;28;20050;-51
2022/08/18 13:25:55;;;;;;;7.30;4.00;;;31.00;45.20;;;;;;5010474;28;20065;-52
2022/08/18 13:28:33;;;;;;;4.95;4.47;;;31.30;45.40;;;;;;5002869;28;20085;-52
2022/08/18 13:31:20;;;;;;;4.70;4.30;;;31.50;44.60;;;;;;5010839;28;20161;-52
2022/08/18 13:33:49;;;;;;;6.00;4.72;;;31.90;44.20;;;;;;5016103;28;20550;-50
2022/08/18 13:36:43;;;;;;;9.48;4.70;;;32.30;43.30;;;;;;5013219;28;20054;-49
2022/08/18 13:39:20;;;;;;;5.70;5.15;;;32.60;44.00;;;;;;5025473;28;20066;-50
2022/08/18 13:41:51;;;;;;;5.95;5.45;;;33.00;42.30;;;;;;5018719;28;20046;-49
2022/08/18 13:44:19;;;;;;;4.83;4.40;;;33.50;42.50;;;;;;5009294;28;20046;-52
2022/08/18 13:46:47;;;;;;;5.28;4.75;;;34.20;42.70;;;;;;5005100;28;20045;-48